Flight Track Log - Related Links

Times and Time Zones

All times are in EDT time to prevent confusion due to time zone crossing. See the NKS875 flight status page for this flight to view local times or setup timezone preferences in your user account.

Time Position Orientation Groundspeed Altitude Reporting Facility
EDT Latitude Longitude Course Direction KTS MPH feet Rate Location/Type
Tue 12:39:27 AM 32.8680 -97.0540 190° South 156 180 2,200  Level FlightAware ADS-B
Tue 12:39:57 AM 32.8420 -97.0600 191° South 203 234 2,800 2,300 Climbing FlightAware ADS-B
Tue 12:40:27 AM 32.8120 -97.0670 191° South 210 242 4,500 3,382 Climbing FlightAware ADS-B
Tue 12:40:52 AM 32.7930 -97.0780 206° Southwest 215 247 5,900 3,150 Climbing FlightAware ADS-B
Tue 12:41:07 AM 32.7870 -97.0970 249° West 242 278 6,600 2,400 Climbing FlightAware ADS-B
Tue 12:41:12 AM 32.7870 -97.1000 270° West 248 285 6,700 2,400 Climbing FlightAware ADS-B
Tue 12:41:47 AM 32.7980 -97.1530 284° West 278 320 8,200 2,700 Climbing FlightAware ADS-B
Tue 12:42:12 AM 32.8140 -97.1830 302° West 278 320 9,400 2,862 Climbing FlightAware ADS-B
Tue 12:42:52 AM 32.8400 -97.2390 299° West 286 329 11,300 2,824 Climbing FlightAware ADS-B
Tue 12:43:37 AM 32.8710 -97.3010 301° West 291 335 13,400 2,133 Climbing FlightAware ADS-B
Tue 12:44:22 AM 32.9040 -97.3650 302° West 329 379 14,500 1,906 Climbing FlightAware ADS-B
Tue 12:45:02 AM 32.9360 -97.4260 302° West 333 383 16,100 2,682 Climbing FlightAware ADS-B
Tue 12:45:47 AM 32.9730 -97.4990 301° West 329 379 18,300 1,976 Climbing FlightAware ADS-B
Tue 12:46:27 AM 33.0040 -97.5600 301° West 356 410 18,900 1,500 Climbing FlightAware ADS-B
Tue 12:47:07 AM 33.0410 -97.6320 302° West 370 426 20,300 1,976 Climbing FlightAware ADS-B
Tue 12:47:52 AM 33.0800 -97.7090 301° West 375 432 21,700 1,906 Climbing FlightAware ADS-B
Tue 12:48:32 AM 33.1090 -97.7860 294° West 373 429 23,000 1,624 Climbing FlightAware ADS-B
Tue 12:49:17 AM 33.1360 -97.8750 290° West 385 443 24,000 1,360 Climbing FlightAware ADS-B
Tue 12:49:47 AM 33.1550 -97.9330 291° West 389 448 24,700 1,482 Climbing FlightAware ADS-B
Tue 12:50:42 AM 33.1900 -98.0450 291° West 396 456 26,100 1,412 Climbing FlightAware ADS-B
Tue 12:51:12 AM 33.2090 -98.1050 291° West 400 460 26,700 867 Climbing FlightAware ADS-B
Tue 12:52:12 AM 33.2460 -98.2260 290° West 406 467 27,400 857 Climbing FlightAware ADS-B
Tue 12:52:57 AM 33.2760 -98.3210 291° West 413 475 28,200 565 Climbing FlightAware ADS-B
Tue 12:53:37 AM 33.2980 -98.3940 290° West 413 475 28,200 1,560 Level FlightAware ADS-B
Tue 12:54:37 AM 33.3470 -98.5500 291° West 423 487 30,800 2,100 Climbing FlightAware ADS-B
Tue 12:55:17 AM 33.3740 -98.6360 291° West 420 483 31,700 1,482 Climbing FlightAware ADS-B
Tue 12:56:02 AM 33.4030 -98.7310 290° West 411 473 32,900 1,341 Climbing FlightAware ADS-B
Tue 12:56:42 AM 33.4290 -98.8180 290° West 409 471 33,600 1,120 Climbing FlightAware ADS-B
Tue 12:57:17 AM 33.4500 -98.8860 290° West 409 471 34,300 918 Climbing FlightAware ADS-B
Tue 12:58:07 AM 33.4860 -99.0010 291° West 415 478 34,900 565 Climbing FlightAware ADS-B
Tue 12:58:42 AM 33.5130 -99.0650 297° West 417 480 35,100 160 Climbing FlightAware ADS-B
Tue 12:59:22 AM 33.5430 -99.1350 297° West 417 480 35,100  Level FlightAware ADS-B
Tue 01:00:12 AM 33.5800 -99.2230 297° West 417 480 35,100 831 Level FlightAware ADS-B
Tue 01:00:27 AM 33.6820 -99.2250 359° North 425 489 36,000 1,080 Climbing FlightAware ADS-B
Tue 01:01:02 AM 33.7270 -99.2730 318° Northwest 425 489 36,000  Level FlightAware ADS-B
Tue 01:01:52 AM 33.7900 -99.3390 319° Northwest 425 489 36,000  Level FlightAware ADS-B
Tue 01:02:32 AM 33.8410 -99.3920 319° Northwest 425 489 36,000  Level FlightAware ADS-B
Tue 01:03:12 AM 33.8910 -99.4450 319° Northwest 425 489 36,000 71 Level FlightAware ADS-B
Tue 01:03:57 AM 33.9970 -99.5550 319° Northwest 435 501 36,100  Climbing FlightAware ADS-B
Tue 01:04:42 AM 34.0660 -99.6270 319° Northwest 433 498 36,000 -60 Descending FlightAware ADS-B
Tue 01:05:37 AM 34.1500 -99.7160 319° Northwest 431 496 36,000  Level FlightAware ADS-B
Tue 01:06:17 AM 34.2100 -99.7800 319° Northwest 431 496 36,000  Level FlightAware ADS-B
Tue 01:07:02 AM 34.2760 -99.8500 319° Northwest 430 495 36,000  Level FlightAware ADS-B
Tue 01:07:42 AM 34.3380 -99.9150 319° Northwest 427 491 36,000  Level FlightAware ADS-B
Tue 01:08:22 AM 34.3960 -99.9770 319° Northwest 428 493 36,000  Level FlightAware ADS-B
Tue 01:09:07 AM 34.4600 -100.0450 319° Northwest 427 491 36,000  Level FlightAware ADS-B
Tue 01:09:47 AM 34.5170 -100.1070 318° Northwest 427 491 36,000  Level FlightAware ADS-B
Tue 01:10:22 AM 34.5750 -100.1680 319° Northwest 430 495 36,000  Level FlightAware ADS-B
Tue 01:11:07 AM 34.6340 -100.2330 318° Northwest 430 495 36,000  Level FlightAware ADS-B
Tue 01:11:47 AM 34.6840 -100.2880 318° Northwest 430 495 36,000  Level FlightAware ADS-B
Tue 01:12:37 AM 34.7470 -100.3570 318° Northwest 430 495 36,000  Level FlightAware ADS-B
Tue 01:13:17 AM 34.7970 -100.4120 318° Northwest 430 495 36,000  Level FlightAware ADS-B
Tue 01:13:57 AM 34.8470 -100.4670 318° Northwest 430 495 36,000  Level FlightAware ADS-B
Tue 01:14:37 AM 34.8980 -100.5220 319° Northwest 430 495 36,000  Level FlightAware ADS-B
Tue 01:15:17 AM 34.9480 -100.5770 318° Northwest 430 495 36,000  Level FlightAware ADS-B
Tue 01:15:57 AM 34.9980 -100.6330 317° Northwest 430 495 36,000  Level FlightAware ADS-B
Tue 01:16:47 AM 35.0610 -100.7020 318° Northwest 430 495 36,000  Level FlightAware ADS-B
Tue 01:17:27 AM 35.1110 -100.7570 318° Northwest 430 495 36,000  Level FlightAware ADS-B
Tue 01:18:07 AM 35.1610 -100.8120 318° Northwest 430 495 36,000  Level FlightAware ADS-B
Tue 01:18:47 AM 35.2120 -100.8680 318° Northwest 430 495 36,000  Level FlightAware ADS-B
Tue 01:19:27 AM 35.2620 -100.9230 318° Northwest 430 495 36,000  Level FlightAware ADS-B
Tue 01:20:17 AM 35.3250 -100.9930 318° Northwest 430 495 36,000 74 Level FlightAware ADS-B
Tue 01:20:48 AM 35.5278 -101.2033 318° Northwest 448 516 36,100 65 Climbing Albuquerque Center
Tue 01:21:49 AM 35.6167 -101.3028 318° Northwest 441 507 36,100 -50 Level Albuquerque Center
Tue 01:22:49 AM 35.7058 -101.4025 318° Northwest 438 504 36,000 -50 Descending Albuquerque Center
Tue 01:23:50 AM 35.7925 -101.5000 318° Northwest 430 495 36,000  Level Albuquerque Center
Tue 01:24:51 AM 35.8808 -101.5975 318° Northwest 428 493 36,000  Level Albuquerque Center
Tue 01:25:51 AM 35.9686 -101.6964 318° Northwest 429 494 36,000  Level Albuquerque Center
Tue 01:26:52 AM 36.0575 -101.7967 318° Northwest 432 497 36,000 50 Level Albuquerque Center
Tue 01:27:52 AM 36.1464 -101.9000 317° Northwest 438 504 36,100  Climbing Albuquerque Center
Tue 01:28:53 AM 36.2361 -102.0006 318° Northwest 438 504 36,000 -49 Descending Albuquerque Center
Tue 01:29:54 AM 36.3261 -102.1008 318° Northwest 437 503 36,000  Level Albuquerque Center
Tue 01:30:54 AM 36.4158 -102.2050 317° Northwest 439 505 36,000 50 Level Albuquerque Center
Tue 01:31:55 AM 36.5081 -102.3089 318° Northwest 446 513 36,100  Climbing Albuquerque Center
Tue 01:38:10 AM 37.0898 -102.9840 318° Northwest 445 512 36,000 -15 Descending FlightAware ADS-B
Tue 01:38:40 AM 37.1347 -103.0370 317° Northwest 446 513 36,000  Level FlightAware ADS-B
Tue 01:39:10 AM 37.1798 -103.0900 317° Northwest 448 516 36,000  Level FlightAware ADS-B
Tue 01:39:40 AM 37.2253 -103.1430 317° Northwest 450 518 36,000  Level FlightAware ADS-B
Tue 01:40:10 AM 37.2715 -103.1980 317° Northwest 451 519 36,000  Level FlightAware ADS-B
Tue 01:40:41 AM 37.3181 -103.2520 317° Northwest 453 521 36,000 98 Level FlightAware ADS-B
Tue 01:41:11 AM 37.3638 -103.3060 317° Northwest 453 521 36,100 100 Climbing FlightAware ADS-B
Tue 01:41:41 AM 37.4099 -103.3610 317° Northwest 454 522 36,100  Level FlightAware ADS-B
Tue 01:42:11 AM 37.4557 -103.4160 316° Northwest 453 521 36,100 -100 Level FlightAware ADS-B
Tue 01:42:41 AM 37.5017 -103.4700 317° Northwest 453 521 36,000 -98 Descending FlightAware ADS-B
Tue 01:43:12 AM 37.5479 -103.5250 317° Northwest 453 521 36,000  Level FlightAware ADS-B
Tue 01:43:42 AM 37.5942 -103.5800 317° Northwest 453 521 36,000  Level FlightAware ADS-B
Tue 01:44:12 AM 37.6401 -103.6360 316° Northwest 455 524 36,000  Level FlightAware ADS-B
Tue 01:44:42 AM 37.6849 -103.6900 316° Northwest 456 525 36,000  Level FlightAware ADS-B
Tue 01:45:14 AM 37.7340 -103.7480 317° Northwest 458 527 36,000  Level FlightAware ADS-B
Tue 01:45:44 AM 37.7815 -103.8050 317° Northwest 462 532 36,000  Level FlightAware ADS-B
Tue 01:46:14 AM 37.8283 -103.8610 317° Northwest 465 535 36,000  Level FlightAware ADS-B
Tue 01:46:44 AM 37.8750 -103.9180 316° Northwest 467 537 36,000 98 Level FlightAware ADS-B
Tue 01:47:15 AM 37.9230 -103.9760 316° Northwest 469 540 36,100 94 Climbing FlightAware ADS-B
Tue 01:47:48 AM 37.9752 -104.0390 316° Northwest 470 541 36,100  Level FlightAware ADS-B
Tue 01:48:20 AM 38.0239 -104.0980 316° Northwest 468 539 36,100  Level FlightAware ADS-B
Tue 01:48:53 AM 38.0759 -104.1610 316° Northwest 466 536 36,100  Level FlightAware ADS-B
Tue 01:49:27 AM 38.1277 -104.2240 316° Northwest 463 533 36,100 -94 Level FlightAware ADS-B
Tue 01:49:57 AM 38.1746 -104.2820 316° Northwest 463 533 36,000 -98 Descending FlightAware ADS-B
Tue 01:50:28 AM 38.2219 -104.3400 316° Northwest 461 531 36,000  Level FlightAware ADS-B
Tue 01:50:59 AM 38.2698 -104.3990 316° Northwest 460 529 36,000  Level FlightAware ADS-B
Tue 01:51:33 AM 38.3215 -104.4620 316° Northwest 460 529 36,000  Level FlightAware ADS-B
Tue 01:52:10 AM 38.3779 -104.5320 316° Northwest 460 529 36,000  Level FlightAware ADS-B
Tue 01:52:42 AM 38.4259 -104.5910 316° Northwest 460 529 36,000  Level FlightAware ADS-B
Tue 01:53:19 AM 38.4823 -104.6620 315° West 461 531 36,000  Level FlightAware ADS-B
Tue 01:53:50 AM 38.5296 -104.7200 316° Northwest 462 532 36,000  Level FlightAware ADS-B
Tue 01:54:23 AM 38.5804 -104.7830 316° Northwest 463 533 36,000  Level FlightAware ADS-B
Tue 01:54:55 AM 38.6292 -104.8440 316° Northwest 465 535 36,000  Level FlightAware ADS-B
Tue 01:55:25 AM 38.6759 -104.9030 315° West 465 535 36,000 100 Level FlightAware ADS-B
Tue 01:55:55 AM 38.7219 -104.9600 316° Northwest 465 535 36,100 98 Climbing FlightAware ADS-B
Tue 01:56:26 AM 38.7689 -105.0190 316° Northwest 465 535 36,100  Level FlightAware ADS-B
Tue 01:56:56 AM 38.8152 -105.0770 316° Northwest 465 535 36,100  Level FlightAware ADS-B
Tue 01:57:25 AM 38.8597 -105.1330 316° Northwest 463 533 36,100 -102 Level FlightAware ADS-B
Tue 01:57:55 AM 38.9052 -105.1900 316° Northwest 462 532 36,000 -100 Descending FlightAware ADS-B
Tue 01:58:25 AM 38.9510 -105.2480 315° West 460 529 36,000  Level FlightAware ADS-B
Tue 01:58:55 AM 38.9966 -105.3060 315° West 460 529 36,000  Level FlightAware ADS-B
Tue 01:59:25 AM 39.0417 -105.3640 315° West 458 527 36,000  Level FlightAware ADS-B
Tue 01:59:55 AM 39.0871 -105.4220 315° West 458 527 36,000 100 Level FlightAware ADS-B
Tue 02:00:25 AM 39.1321 -105.4790 316° Northwest 456 525 36,100  Climbing FlightAware ADS-B
Tue 02:00:56 AM 39.1778 -105.5370 315° West 455 524 36,000 -98 Descending FlightAware ADS-B
Tue 02:01:26 AM 39.2231 -105.5950 315° West 452 520 36,000  Level FlightAware ADS-B
Tue 02:01:57 AM 39.2677 -105.6520 315° West 451 519 36,000  Level FlightAware ADS-B
Tue 02:02:28 AM 39.3136 -105.7120 315° West 450 518 36,000  Level FlightAware ADS-B
Tue 02:03:01 AM 39.3622 -105.7740 315° West 450 518 36,000  Level FlightAware ADS-B
Tue 02:03:31 AM 39.4064 -105.8310 315° West 449 517 36,000  Level FlightAware ADS-B
Tue 02:04:01 AM 39.4508 -105.8880 315° West 449 517 36,000  Level FlightAware ADS-B
Tue 02:04:32 AM 39.4962 -105.9470 315° West 449 517 36,000  Level FlightAware ADS-B
Tue 02:05:08 AM 39.5498 -106.0160 315° West 449 517 36,000  Level FlightAware ADS-B
Tue 02:05:39 AM 39.5945 -106.0750 315° West 450 518 36,000  Level FlightAware ADS-B
Tue 02:06:10 AM 39.6398 -106.1340 315° West 452 520 36,000  Level FlightAware ADS-B
Tue 02:06:40 AM 39.6842 -106.1920 315° West 453 521 36,000 100 Level FlightAware ADS-B
Tue 02:07:10 AM 39.7290 -106.2500 315° West 452 520 36,100 98 Climbing FlightAware ADS-B
Tue 02:07:41 AM 39.7739 -106.3080 315° West 452 520 36,100 -98 Level FlightAware ADS-B
Tue 02:08:11 AM 39.8183 -106.3670 314° West 452 520 36,000 -100 Descending FlightAware ADS-B
Tue 02:08:41 AM 39.8627 -106.4250 315° West 451 519 36,000  Level FlightAware ADS-B
Tue 02:09:12 AM 39.9073 -106.4840 315° West 451 519 36,000  Level FlightAware ADS-B
Tue 02:09:42 AM 39.9515 -106.5430 314° West 452 520 36,000  Level FlightAware ADS-B
Tue 02:10:20 AM 40.0067 -106.6170 314° West 453 521 36,000  Level FlightAware ADS-B
Tue 02:11:10 AM 40.0801 -106.7140 315° West 453 521 36,000 69 Level FlightAware ADS-B
Tue 02:11:47 AM 40.1340 -106.7850 315° West 453 521 36,100  Climbing FlightAware ADS-B
Tue 02:12:26 AM 40.1909 -106.8610 314° West 450 518 36,000 -77 Descending FlightAware ADS-B
Tue 02:13:05 AM 40.2468 -106.9350 315° West 450 518 36,000  Level FlightAware ADS-B
Tue 02:14:02 AM 40.3293 -107.0470 314° West 447 514 36,000  Level FlightAware ADS-B
Tue 02:14:32 AM 40.3731 -107.1060 314° West 448 516 36,000  Level FlightAware ADS-B
Tue 02:15:37 AM 40.4560 -107.2170 314° West 449 517 36,000  Level FlightAware ADS-B
Tue 02:16:17 AM 40.5190 -107.3030 314° West 450 518 36,000  Level FlightAware ADS-B
Tue 02:17:02 AM 40.5720 -107.3830 311° West 451 519 36,000  Level FlightAware ADS-B
Tue 02:17:32 AM 40.6070 -107.4360 311° West 451 519 36,000  Level FlightAware ADS-B
Tue 02:18:22 AM 40.6650 -107.5240 311° West 451 519 36,000  Level FlightAware ADS-B
Tue 02:19:02 AM 40.7120 -107.5950 311° West 451 519 36,000  Level FlightAware ADS-B
Tue 02:19:42 AM 40.7580 -107.6660 311° West 451 519 36,000  Level FlightAware ADS-B
Tue 02:20:32 AM 40.8170 -107.7540 312° West 451 519 36,000  Level FlightAware ADS-B
Tue 02:21:12 AM 40.8630 -107.8250 311° West 451 519 36,000  Level FlightAware ADS-B
Tue 02:21:52 AM 40.9100 -107.8960 311° West 451 519 36,000  Level FlightAware ADS-B
Tue 02:22:32 AM 40.9560 -107.9660 311° West 451 519 36,000  Level FlightAware ADS-B
Tue 02:23:12 AM 41.0030 -108.0370 311° West 451 519 36,000  Level FlightAware ADS-B
Tue 02:23:52 AM 41.0490 -108.1080 311° West 451 519 36,000  Level FlightAware ADS-B
Tue 02:24:42 AM 41.1080 -108.1970 311° West 451 519 36,000  Level FlightAware ADS-B
Tue 02:25:22 AM 41.1540 -108.2680 311° West 451 519 36,000  Level FlightAware ADS-B
Tue 02:26:02 AM 41.2010 -108.3390 311° West 451 519 36,000  Level FlightAware ADS-B
Tue 02:26:22 AM 41.3006 -108.5425 311° West 438 504 36,000  Level Salt Lake Center
Tue 02:27:23 AM 41.3869 -108.6828 309° West 441 507 36,000 50 Level Salt Lake Center
Tue 02:28:23 AM 41.4608 -108.8028 309° West 441 507 36,100 50 Climbing Salt Lake Center
Tue 02:29:24 AM 41.5342 -108.9228 309° West 441 507 36,100  Level Salt Lake Center
Tue 02:30:24 AM 41.6125 -109.0678 306° West 440 506 36,100 -50 Level Salt Lake Center
Tue 02:31:25 AM 41.6617 -109.2058 296° West 437 503 36,000 -50 Descending Salt Lake Center
Tue 02:32:25 AM 41.7217 -109.3669 297° West 437 503 36,000 50 Level Salt Lake Center
Tue 02:33:26 AM 41.7722 -109.5050 296° West 435 501 36,100 50 Climbing Salt Lake Center
Tue 02:34:26 AM 41.8231 -109.6433 296° West 435 501 36,100 -50 Level Salt Lake Center
Tue 02:35:27 AM 41.8814 -109.8025 296° West 428 493 36,000 -50 Descending Salt Lake Center
Tue 02:36:27 AM 41.9303 -109.9375 296° West 422 486 36,000  Level Salt Lake Center
Tue 02:37:28 AM 41.9792 -110.0747 296° West 426 490 36,000  Level Salt Lake Center
Tue 02:38:28 AM 42.0375 -110.2333 296° West 425 489 36,000 50 Level Salt Lake Center
Tue 02:39:29 AM 42.0864 -110.3725 295° West 430 495 36,100 50 Climbing Salt Lake Center
Tue 02:40:29 AM 42.1356 -110.5092 296° West 426 490 36,100 -50 Level Salt Lake Center
Tue 02:41:30 AM 42.1919 -110.6678 296° West 422 486 36,000 -50 Descending Salt Lake Center
Tue 02:42:30 AM 42.2394 -110.8031 295° West 419 482 36,000  Level Salt Lake Center
Tue 02:43:31 AM 42.2858 -110.9353 295° West 411 473 36,000  Level Salt Lake Center
Tue 02:44:31 AM 42.3342 -111.0731 295° West 416 479 36,000  Level Salt Lake Center
Tue 02:45:32 AM 42.3831 -111.2136 295° West 417 480 36,000  Level Salt Lake Center
Tue 02:46:32 AM 42.4306 -111.3517 295° West 410 472 36,000  Level Salt Lake Center
Tue 02:47:33 AM 42.4778 -111.4928 294° West 413 475 36,000  Level Salt Lake Center
Tue 02:48:33 AM 42.5261 -111.6319 295° West 411 473 36,000  Level Salt Lake Center
Tue 02:49:34 AM 42.5733 -111.7725 295° West 411 473 36,000  Level Salt Lake Center
Tue 02:50:34 AM 42.6331 -111.9419 296° West 416 479 36,000 50 Level Salt Lake Center
Tue 02:51:35 AM 42.6814 -112.0872 294° West 423 487 36,100 50 Climbing Salt Lake Center
Tue 02:52:35 AM 42.7289 -112.2233 295° West 418 481 36,100 -50 Level Salt Lake Center
Tue 02:53:36 AM 42.7733 -112.3586 294° West 414 476 36,000 -50 Descending Salt Lake Center
Tue 02:54:36 AM 42.8247 -112.5172 294° West 410 472 36,000  Level Salt Lake Center
Tue 02:55:36 AM 42.8708 -112.6531 295° West 411 473 36,000  Level Salt Lake Center
Tue 02:56:37 AM 42.9014 -112.7958 286° West 412 474 36,000  Level Salt Lake Center
Tue 02:57:37 AM 42.9317 -112.9403 286° West 416 479 36,000 50 Level Salt Lake Center
Tue 02:58:38 AM 42.9650 -113.1092 285° West 414 476 36,100  Climbing Salt Lake Center
Tue 02:59:38 AM 42.9950 -113.2544 286° West 415 478 36,000 -50 Descending Salt Lake Center
Tue 03:00:39 AM 43.0250 -113.4008 286° West 416 479 36,000  Level Salt Lake Center
Tue 03:01:39 AM 43.0603 -113.5722 286° West 420 483 36,000 50 Level Salt Lake Center
Tue 03:02:40 AM 43.0900 -113.7206 285° West 422 486 36,100  Climbing Salt Lake Center
Tue 03:03:40 AM 43.1181 -113.8661 285° West 422 486 36,000 -50 Descending Salt Lake Center
Tue 03:04:41 AM 43.1461 -114.0244 284° West 423 487 36,000  Level Salt Lake Center
Tue 03:05:41 AM 43.1783 -114.1783 286° West 422 486 36,000  Level Salt Lake Center
Tue 03:06:41 AM 43.2100 -114.3306 286° West 422 486 36,000  Level Salt Lake Center
Tue 03:07:42 AM 43.2425 -114.5042 284° West 423 487 36,000 50 Level Salt Lake Center
Tue 03:08:42 AM 43.2714 -114.6519 285° West 418 481 36,100  Climbing Salt Lake Center
Tue 03:09:43 AM 43.2994 -114.7997 285° West 419 482 36,000 -50 Descending Salt Lake Center
Tue 03:10:43 AM 43.3317 -114.9717 285° West 417 480 36,000  Level Salt Lake Center
Tue 03:11:44 AM 43.3594 -115.1189 285° West 415 478 36,000  Level Salt Lake Center
Tue 03:12:44 AM 43.3858 -115.2644 284° West 409 471 36,000  Level Salt Lake Center
Tue 03:13:45 AM 43.4169 -115.4344 284° West 409 471 36,000  Level Salt Lake Center
Tue 03:14:45 AM 43.4436 -115.5794 284° West 407 468 36,000  Level Salt Lake Center
Tue 03:15:46 AM 43.4697 -115.7242 284° West 407 468 36,000  Level Salt Lake Center
Tue 03:16:46 AM 43.4958 -115.8711 284° West 411 473 36,000 50 Level Salt Lake Center
Tue 03:17:46 AM 43.5258 -116.0422 284° West 411 473 36,100 50 Climbing Salt Lake Center
Tue 03:18:47 AM 43.5528 -116.1883 284° West 410 472 36,100 -50 Level Salt Lake Center
Tue 03:19:47 AM 43.5975 -116.3283 294° West 414 476 36,000 -50 Descending Salt Lake Center
Tue 03:20:48 AM 43.6503 -116.4883 295° West 409 471 36,000  Level Salt Lake Center
Tue 03:21:48 AM 43.6964 -116.6272 295° West 415 478 36,000  Level Salt Lake Center
Tue 03:22:49 AM 43.7406 -116.7622 294° West 406 467 36,000  Level Salt Lake Center
Tue 03:23:49 AM 43.7842 -116.8989 294° West 403 464 36,000  Level Salt Lake Center
Tue 03:24:49 AM 43.8364 -117.0592 294° West 405 466 36,000  Level Salt Lake Center
Tue 03:25:50 AM 43.8811 -117.1964 294° West 409 471 36,000 50 Level Salt Lake Center
Tue 03:26:00 AM 43.8737 -117.1774 294° West  Level FlightAware Approximate
Tue 03:26:50 AM 43.9244 -117.3344 294° West 408 470 36,100  Level Salt Lake Center
Tue 03:27:51 AM 43.9689 -117.4744 294° West 412 474 36,000 -49 Descending Salt Lake Center
Tue 03:28:52 AM 44.0206 -117.6364 294° West 412 474 36,000  Level Salt Lake Center
Tue 03:29:51 AM 44.0639 -117.7753 294° West 410 472 36,000  Level Salt Lake Center
Tue 03:31:52 AM 44.1581 -118.0769 294° West 409 471 36,000  Level Salt Lake Center
Tue 03:32:53 AM 44.2011 -118.2158 293° West 409 471 36,000  Level Salt Lake Center
Tue 03:33:53 AM 44.2436 -118.3556 293° West 408 470 36,000  Level Salt Lake Center
Tue 03:34:53 AM 44.2914 -118.5114 293° West 416 479 36,000 50 Level Salt Lake Center
Tue 03:35:54 AM 44.3367 -118.6597 293° West 417 480 36,100 50 Climbing Salt Lake Center
Tue 03:36:54 AM 44.3811 -118.8069 293° West 412 474 36,100 -50 Level Salt Lake Center
Tue 03:37:55 AM 44.4242 -118.9550 292° West 412 474 36,000 -50 Descending Salt Lake Center
Tue 03:38:55 AM 44.4722 -119.1022 295° West 415 478 36,000 50 Level Salt Lake Center
Tue 03:39:55 AM 44.5394 -119.2378 305° West 424 488 36,100 50 Climbing Salt Lake Center
Tue 03:40:56 AM 44.6031 -119.3744 303° West 420 483 36,100 -50 Level Salt Lake Center
Tue 03:41:56 AM 44.6658 -119.5106 303° West 416 479 36,000 -25 Descending Salt Lake Center
Tue 03:44:00 AM 44.7868 -119.7623 304° West  Level FlightAware Approximate
Tue 03:44:57 AM 44.8564 -119.9228 304° West 418 481 36,000  Level Salt Lake Center
Tue 03:47:00 AM 44.9703 -120.1772 304° West  Level FlightAware Approximate
Tue 03:49:08 AM 45.1258 -120.5172 295° West 424 488 35,400  Level Seattle Center
Tue 03:50:08 AM 45.1892 -120.6603 302° West 427 491 34,000 -2,550 Descending Seattle Center
Tue 03:51:08 AM 45.2542 -120.8044 303° West 433 498 30,300 -3,917 Descending Seattle Center
Tue 03:52:09 AM 45.3208 -120.9556 302° West 446 513 26,100 -3,669 Descending Seattle Center
Tue 03:53:09 AM 45.3867 -121.1058 302° West 449 517 22,900 -3,150 Descending Seattle Center
Tue 03:54:00 AM 45.3969 -121.1408 295° West  Level FlightAware Approximate
Tue 03:54:09 AM 45.4353 -121.2572 295° West 436 502 19,800  Level Seattle Center
Tue 03:54:46 AM 45.4489 -121.3550 281° West 395 455 17,900 -3,200 Descending Seattle Center
Tue 03:55:09 AM 45.4536 -121.4133 277° West 409 471 16,600 -2,955 Descending Seattle Center
Tue 03:55:53 AM 45.4672 -121.5233 280° West 394 453 14,600 -3,000 Descending Seattle Center
Tue 03:56:09 AM 45.4725 -121.5644 280° West 395 455 13,600 -3,000 Descending Seattle Center
Tue 03:56:53 AM 45.4878 -121.6817 281° West 385 443 11,600 -2,300 Descending Seattle Center
Tue 03:57:09 AM 45.4922 -121.7136 281° West 388 447 11,300 -984 Descending Seattle Center
Tue 03:57:54 AM 45.5039 -121.8200 279° West 334 384 10,600 -900 Descending Seattle Center
Tue 03:58:09 AM 45.5044 -121.8436 272° West 340 391 10,400 -1,279 Descending Seattle Center
Tue 03:58:55 AM 45.5078 -121.9328 273° West 273 314 9,300 -1,642 Descending Seattle Center
Tue 03:59:55 AM 45.5131 -122.0417 274° West 274 315 7,500 -1,636 Descending Seattle Center
Tue 04:00:56 AM 45.5194 -122.1469 275° West 269 310 6,000 -1,537 Descending Seattle Center
Tue 04:01:56 AM 45.5256 -122.2494 275° West 259 298 4,400 -1,488 Descending Seattle Center
Tue 04:02:57 AM 45.5306 -122.3492 274° West 250 288 3,000 -1,091 Descending Seattle Center
Tue 04:03:57 AM 45.5342 -122.4311 274° West 175 201 2,200 -793 Descending Seattle Center
Tue 04:04:58 AM 45.5519 -122.4856 295° West 139 160 1,400 -738 Descending Seattle Center
Tue 04:05:59 AM 45.5703 -122.5336 299° West 133 153 700 -455 Descending Seattle Center
Tue 04:07:10 AM 45.5906 -122.5822 301° West 147 169 400 -254 Descending Seattle Center

Login

Don't have an account? Register now (free) for customized features, flight alerts, and more!